createdAt,value
2018-05-27T00:01:18.784Z,5.50
2018-05-27T00:06:12.092Z,5.30
2018-05-27T00:11:06.162Z,5.47
2018-05-27T00:15:59.509Z,5.43
2018-05-27T00:20:52.826Z,5.90
2018-05-27T00:25:46.151Z,6.00
2018-05-27T00:30:39.433Z,6.17
2018-05-27T00:35:32.763Z,5.80
2018-05-27T00:40:26.837Z,5.77
2018-05-27T00:45:20.138Z,5.53
2018-05-27T00:50:14.223Z,5.90
2018-05-27T00:55:07.525Z,5.70
2018-05-27T01:00:00.851Z,4.97
2018-05-27T01:04:54.169Z,5.50
2018-05-27T01:09:48.238Z,6.23
2018-05-27T01:14:41.552Z,6.07
2018-05-27T01:19:34.867Z,5.43
2018-05-27T01:24:28.166Z,5.40
2018-05-27T01:29:21.460Z,5.30
2018-05-27T01:34:14.785Z,5.70
2018-05-27T01:39:08.103Z,5.53
2018-05-27T01:44:01.407Z,5.83
2018-05-27T01:48:54.717Z,5.87
2018-05-27T01:53:48.046Z,5.80
2018-05-27T01:58:41.388Z,5.93
2018-05-27T02:03:34.677Z,5.77
2018-05-27T02:08:27.996Z,5.53
2018-05-27T02:13:21.308Z,6.00
2018-05-27T02:18:14.612Z,6.53
2018-05-27T02:23:07.919Z,6.30
2018-05-27T02:28:02.002Z,5.90
2018-05-27T02:32:55.317Z,6.43
2018-05-27T02:37:49.391Z,6.40
2018-05-27T02:42:43.805Z,6.40
2018-05-27T02:47:37.113Z,6.60
2018-05-27T02:52:30.612Z,6.50
2018-05-27T02:57:23.923Z,6.10
2018-05-27T03:02:17.990Z,6.67
2018-05-27T03:07:11.324Z,6.40
2018-05-27T03:12:04.676Z,6.87
2018-05-27T03:16:57.981Z,6.97
2018-05-27T03:21:51.819Z,7.13
2018-05-27T03:26:45.169Z,7.13
2018-05-27T03:31:38.558Z,6.23
2018-05-27T03:36:31.968Z,7.70
2018-05-27T03:41:25.303Z,6.87
2018-05-27T03:46:19.371Z,7.10
2018-05-27T03:51:12.673Z,6.40
2018-05-27T03:56:06.756Z,7.40
2018-05-27T04:01:00.051Z,7.33
2018-05-27T04:06:11.054Z,7.30
2018-05-27T04:11:04.362Z,8.30
2018-05-27T04:15:57.672Z,7.60
2018-05-27T04:20:50.973Z,7.77
2018-05-27T04:25:44.276Z,8.10
2018-05-27T04:30:37.584Z,8.67
2018-05-27T04:35:30.888Z,7.87
2018-05-27T04:40:24.195Z,8.07
2018-05-27T04:45:17.499Z,8.00
2018-05-27T04:50:10.804Z,8.10
2018-05-27T04:55:04.204Z,7.90
2018-05-27T04:59:57.518Z,7.13
2018-05-27T05:04:50.810Z,7.83
2018-05-27T05:09:44.120Z,8.00
2018-05-27T05:14:37.444Z,7.53
2018-05-27T05:19:30.748Z,6.87
2018-05-27T05:24:24.834Z,8.00
2018-05-27T05:29:18.138Z,8.30
2018-05-27T05:34:11.444Z,7.60
2018-05-27T05:39:05.365Z,8.33
2018-05-27T05:43:58.660Z,6.33
2018-05-27T05:48:51.923Z,7.10
2018-05-27T05:53:45.256Z,8.33
2018-05-27T05:58:38.527Z,8.13
2018-05-27T06:03:31.830Z,8.63
2018-05-27T06:08:25.151Z,8.40
2018-05-27T06:13:18.542Z,7.63
2018-05-27T06:18:12.603Z,7.80
2018-05-27T06:23:05.923Z,7.67
2018-05-27T06:27:59.296Z,6.50
2018-05-27T06:32:52.903Z,7.20
2018-05-27T06:37:46.203Z,6.33
2018-05-27T06:42:39.593Z,6.80
2018-05-27T06:47:32.942Z,6.70
2018-05-27T06:52:26.312Z,6.50
2018-05-27T06:57:19.620Z,6.37
2018-05-27T07:02:12.991Z,6.07
2018-05-27T07:07:06.294Z,6.30
2018-05-27T07:11:59.596Z,7.50
2018-05-27T07:16:58.146Z,9.10
2018-05-27T07:21:51.479Z,8.63
2018-05-27T07:26:46.643Z,8.00
2018-05-27T07:31:39.975Z,7.57
2018-05-27T07:36:34.051Z,8.23
2018-05-27T07:41:27.355Z,8.70
2018-05-27T07:46:20.681Z,8.27
2018-05-27T07:51:14.002Z,9.02
2018-05-27T07:56:08.116Z,7.73
2018-05-27T08:01:01.449Z,8.00
2018-05-27T08:05:54.774Z,7.63
2018-05-27T08:10:48.112Z,7.05
2018-05-27T08:15:42.175Z,6.90
2018-05-27T08:20:35.504Z,7.62
2018-05-27T08:25:29.607Z,7.87
2018-05-27T08:30:22.966Z,7.37
2018-05-27T08:35:16.296Z,9.00
2018-05-27T08:40:09.642Z,7.65
2018-05-27T08:45:02.974Z,8.52
2018-05-27T08:49:56.302Z,6.75
2018-05-27T08:54:49.609Z,7.43
2018-05-27T08:59:42.919Z,6.87
2018-05-27T09:04:36.254Z,6.50
2018-05-27T09:09:29.629Z,6.50
2018-05-27T09:14:23.891Z,6.43
2018-05-27T09:19:17.249Z,6.28
2018-05-27T09:24:10.579Z,6.22
2018-05-27T09:29:03.908Z,6.50
2018-05-27T09:33:57.231Z,5.75
2018-05-27T09:38:50.567Z,5.75
2018-05-27T09:43:51.646Z,6.20
2018-05-27T09:53:49.728Z,5.47
2018-05-27T09:58:43.048Z,6.18
2018-05-27T10:03:36.351Z,5.62
2018-05-27T10:08:29.671Z,5.65
2018-05-27T10:13:22.950Z,5.65
2018-05-27T10:18:16.279Z,5.57
2018-05-27T10:23:09.842Z,5.53
2018-05-27T10:28:03.162Z,6.12
2018-05-27T10:32:56.434Z,5.78
2018-05-27T10:37:49.764Z,6.25
2018-05-27T10:42:43.899Z,5.57
2018-05-27T10:47:37.199Z,5.47
2018-05-27T10:52:30.591Z,5.25
2018-05-27T10:57:23.919Z,6.82
2018-05-27T11:02:17.231Z,6.82
2018-05-27T11:07:50.446Z,6.25
2018-05-27T11:12:44.627Z,6.57
2018-05-27T11:17:37.965Z,5.37
2018-05-27T11:22:32.069Z,5.25
2018-05-27T11:27:25.433Z,6.10
2018-05-27T11:32:18.719Z,4.97
2018-05-27T11:37:12.055Z,5.10
2018-05-27T11:42:05.386Z,4.50
2018-05-27T11:46:58.691Z,4.32
2018-05-27T11:51:52.002Z,4.35
2018-05-27T11:56:45.349Z,4.45
2018-05-27T12:01:39.494Z,4.40
2018-05-27T12:06:32.794Z,4.60
2018-05-27T12:11:26.101Z,5.18
2018-05-27T12:16:19.503Z,4.80
2018-05-27T12:21:12.847Z,4.80
2018-05-27T12:26:06.195Z,4.75
2018-05-27T12:30:59.501Z,5.00
2018-05-27T12:35:52.825Z,4.60
2018-05-27T12:40:46.947Z,4.82
2018-05-27T12:45:40.403Z,4.60
2018-05-27T12:50:34.523Z,4.78
2018-05-27T12:55:27.885Z,5.30
2018-05-27T13:00:21.974Z,4.57
2018-05-27T13:05:15.390Z,4.80
2018-05-27T13:10:08.723Z,4.82
2018-05-27T13:15:02.162Z,4.55
2018-05-27T13:19:55.478Z,4.87
2018-05-27T13:24:48.829Z,4.55
2018-05-27T13:29:42.170Z,4.40
2018-05-27T13:34:35.519Z,3.90
2018-05-27T13:39:28.819Z,4.18
2018-05-27T13:44:22.161Z,4.43
2018-05-27T13:49:16.287Z,4.32
2018-05-27T13:54:09.564Z,4.30
2018-05-27T13:59:02.902Z,4.35
2018-05-27T14:03:56.200Z,4.30
2018-05-27T14:08:49.522Z,4.43
2018-05-27T14:13:42.870Z,4.20
2018-05-27T14:18:36.964Z,4.32
2018-05-27T14:23:30.298Z,4.40
2018-05-27T14:28:23.632Z,4.25
2018-05-27T14:33:17.761Z,4.70
2018-05-27T14:38:11.079Z,5.20
2018-05-27T14:43:04.441Z,4.60
2018-05-27T14:47:57.762Z,4.65
2018-05-27T14:52:51.196Z,4.70
2018-05-27T14:57:45.271Z,5.05
2018-05-27T15:02:38.634Z,5.00
2018-05-27T15:07:32.009Z,5.53
2018-05-27T15:12:25.332Z,5.43
2018-05-27T15:17:18.713Z,4.97
2018-05-27T15:22:12.055Z,4.80
2018-05-27T15:27:05.438Z,4.97
2018-05-27T15:31:58.755Z,5.07
2018-05-27T15:36:52.076Z,4.62
2018-05-27T15:41:45.408Z,4.50
2018-05-27T15:46:38.718Z,4.07
2018-05-27T15:51:32.805Z,3.75
2018-05-27T15:56:26.131Z,3.65
2018-05-27T16:01:19.440Z,3.80
2018-05-27T16:06:12.796Z,3.70
2018-05-27T16:11:08.260Z,3.70
2018-05-27T16:16:02.326Z,3.62
2018-05-27T16:20:55.651Z,4.10
2018-05-27T16:25:48.957Z,4.20
2018-05-27T16:30:42.276Z,4.05
2018-05-27T16:35:36.336Z,3.50
2018-05-27T16:40:29.640Z,3.70
2018-05-27T16:45:23.748Z,3.50
2018-05-27T16:50:17.046Z,3.67
2018-05-27T16:55:10.344Z,3.97
2018-05-27T17:00:03.752Z,3.62
2018-05-27T17:04:57.096Z,3.97
2018-05-27T17:09:50.526Z,3.70
2018-05-27T17:14:43.858Z,3.58
2018-05-27T17:19:37.164Z,4.28
2018-05-27T17:24:30.437Z,3.75
2018-05-27T17:29:23.724Z,3.80
2018-05-27T17:34:17.044Z,4.05
2018-05-27T17:39:11.167Z,4.30
2018-05-27T17:44:04.543Z,4.50
2018-05-27T17:48:57.887Z,4.57
2018-05-27T17:53:51.972Z,4.10
2018-05-27T17:58:46.083Z,4.00
2018-05-27T18:03:41.161Z,4.60
2018-05-27T18:08:34.463Z,4.35
2018-05-27T18:13:28.552Z,4.03
2018-05-27T18:18:22.629Z,4.20
2018-05-27T18:23:16.050Z,4.03
2018-05-27T18:28:09.359Z,4.45
2018-05-27T18:33:02.689Z,4.43
2018-05-27T18:37:56.765Z,4.20
2018-05-27T18:42:50.066Z,4.05
2018-05-27T18:47:43.395Z,4.47
2018-05-27T18:52:36.711Z,4.60
2018-05-27T18:57:30.768Z,4.10
2018-05-27T19:02:24.092Z,4.03
2018-05-27T19:07:21.460Z,4.40
2018-05-27T19:12:15.542Z,4.62
2018-05-27T19:17:08.852Z,4.70
2018-05-27T19:22:02.174Z,4.53
2018-05-27T19:26:55.575Z,4.47
2018-05-27T19:31:54.651Z,5.30
2018-05-27T19:36:48.398Z,4.85
2018-05-27T19:41:42.469Z,4.90
2018-05-27T19:46:35.891Z,5.30
2018-05-27T19:51:29.207Z,5.03
2018-05-27T19:56:22.528Z,4.90
2018-05-27T20:01:15.824Z,4.80
2018-05-27T20:06:09.152Z,4.70
2018-05-27T20:11:02.591Z,4.82
2018-05-27T20:15:55.913Z,5.35
2018-05-27T20:20:49.249Z,5.30
2018-05-27T20:25:42.571Z,5.70
2018-05-27T20:30:35.874Z,5.30
2018-05-27T20:35:30.081Z,4.82
2018-05-27T20:40:23.379Z,5.62
2018-05-27T20:45:16.867Z,4.90
2018-05-27T20:50:11.420Z,5.00
2018-05-27T20:55:04.740Z,5.30
2018-05-27T20:59:58.079Z,5.53
2018-05-27T21:04:51.502Z,5.70
2018-05-27T21:09:44.837Z,5.77
2018-05-27T21:14:38.956Z,5.67
2018-05-27T21:19:32.281Z,5.60
2018-05-27T21:24:25.621Z,5.30
2018-05-27T21:29:18.951Z,6.10
2018-05-27T21:34:12.259Z,5.50
2018-05-27T21:39:06.475Z,5.87
2018-05-27T21:43:59.772Z,6.13
2018-05-27T21:48:53.075Z,6.07
2018-05-27T21:53:46.406Z,5.60
2018-05-27T21:58:40.581Z,5.73
2018-05-27T22:03:33.845Z,5.83
2018-05-27T22:08:27.919Z,6.33
2018-05-27T22:13:21.241Z,6.87
2018-05-27T22:18:14.620Z,6.20
2018-05-27T22:23:07.922Z,5.77
2018-05-27T22:28:01.321Z,6.40
2018-05-27T22:32:54.644Z,5.97
2018-05-27T22:37:48.731Z,5.70
2018-05-27T22:42:42.801Z,5.90
2018-05-27T22:47:36.111Z,6.23
2018-05-27T22:52:29.433Z,6.43
2018-05-27T22:57:22.748Z,5.77
2018-05-27T23:02:16.054Z,5.93
2018-05-27T23:07:10.134Z,5.50
2018-05-27T23:12:04.224Z,6.57
2018-05-27T23:16:58.321Z,6.13
2018-05-27T23:21:52.412Z,6.10
2018-05-27T23:26:46.491Z,6.23
2018-05-27T23:31:39.825Z,5.67
2018-05-27T23:36:33.159Z,6.40
2018-05-27T23:41:26.491Z,6.03
2018-05-27T23:46:20.536Z,5.77
2018-05-27T23:51:14.635Z,6.70
2018-05-27T23:56:08.701Z,6.07
